sensor_id;sensor_type;location;lat;lon;timestamp;P1;durP1;ratioP1;P2;durP2;ratioP2
11473;SDS011;5793;52.238;13.438;2023-07-30T00:00:52;5.78;;;5.28;;
11473;SDS011;5793;52.238;13.438;2023-07-30T00:03:20;6.20;;;4.97;;
11473;SDS011;5793;52.238;13.438;2023-07-30T00:05:53;8.73;;;5.38;;
11473;SDS011;5793;52.238;13.438;2023-07-30T00:08:21;7.97;;;6.75;;
11473;SDS011;5793;52.238;13.438;2023-07-30T00:10:49;11.05;;;5.93;;
11473;SDS011;5793;52.238;13.438;2023-07-30T00:13:17;11.02;;;6.00;;
11473;SDS011;5793;52.238;13.438;2023-07-30T00:15:45;9.15;;;6.45;;
11473;SDS011;5793;52.238;13.438;2023-07-30T00:18:14;6.43;;;5.45;;
11473;SDS011;5793;52.238;13.438;2023-07-30T00:20:42;11.68;;;6.95;;
11473;SDS011;5793;52.238;13.438;2023-07-30T00:23:12;8.98;;;5.70;;
11473;SDS011;5793;52.238;13.438;2023-07-30T00:25:39;8.43;;;5.60;;
11473;SDS011;5793;52.238;13.438;2023-07-30T00:28:07;9.00;;;5.60;;
11473;SDS011;5793;52.238;13.438;2023-07-30T00:30:35;7.65;;;5.88;;
11473;SDS011;5793;52.238;13.438;2023-07-30T00:33:03;6.72;;;5.30;;
11473;SDS011;5793;52.238;13.438;2023-07-30T00:35:30;5.40;;;4.80;;
11473;SDS011;5793;52.238;13.438;2023-07-30T00:37:58;6.97;;;6.28;;
11473;SDS011;5793;52.238;13.438;2023-07-30T00:40:27;5.53;;;5.03;;
11473;SDS011;5793;52.238;13.438;2023-07-30T00:42:55;6.53;;;5.30;;
11473;SDS011;5793;52.238;13.438;2023-07-30T00:45:23;6.00;;;5.00;;
11473;SDS011;5793;52.238;13.438;2023-07-30T00:47:51;7.50;;;5.50;;
11473;SDS011;5793;52.238;13.438;2023-07-30T00:50:19;4.88;;;4.35;;
11473;SDS011;5793;52.238;13.438;2023-07-30T00:52:46;9.27;;;7.10;;
11473;SDS011;5793;52.238;13.438;2023-07-30T00:55:14;8.00;;;6.45;;
11473;SDS011;5793;52.238;13.438;2023-07-30T00:57:44;5.25;;;4.55;;
11473;SDS011;5793;52.238;13.438;2023-07-30T01:00:12;8.60;;;6.68;;
11473;SDS011;5793;52.238;13.438;2023-07-30T01:02:40;7.57;;;6.78;;
11473;SDS011;5793;52.238;13.438;2023-07-30T01:05:08;10.73;;;7.32;;
11473;SDS011;5793;52.238;13.438;2023-07-30T01:07:36;8.13;;;7.32;;
11473;SDS011;5793;52.238;13.438;2023-07-30T01:10:04;8.27;;;7.50;;
11473;SDS011;5793;52.238;13.438;2023-07-30T01:12:33;8.25;;;6.88;;
11473;SDS011;5793;52.238;13.438;2023-07-30T01:15:04;8.77;;;7.20;;
11473;SDS011;5793;52.238;13.438;2023-07-30T01:17:34;7.30;;;6.60;;
11473;SDS011;5793;52.238;13.438;2023-07-30T01:20:02;5.95;;;5.45;;
11473;SDS011;5793;52.238;13.438;2023-07-30T01:22:32;6.93;;;6.28;;
11473;SDS011;5793;52.238;13.438;2023-07-30T01:25:00;5.80;;;5.28;;
11473;SDS011;5793;52.238;13.438;2023-07-30T01:27:28;5.43;;;4.93;;
11473;SDS011;5793;52.238;13.438;2023-07-30T01:30:00;6.68;;;6.07;;
11473;SDS011;5793;52.238;13.438;2023-07-30T01:32:30;8.18;;;6.40;;
11473;SDS011;5793;52.238;13.438;2023-07-30T01:34:59;5.10;;;4.70;;
11473;SDS011;5793;52.238;13.438;2023-07-30T01:37:29;5.60;;;4.60;;
11473;SDS011;5793;52.238;13.438;2023-07-30T01:39:58;5.32;;;4.32;;
11473;SDS011;5793;52.238;13.438;2023-07-30T01:42:28;5.97;;;4.65;;
11473;SDS011;5793;52.238;13.438;2023-07-30T01:44:56;6.00;;;4.38;;
11473;SDS011;5793;52.238;13.438;2023-07-30T01:47:23;5.07;;;4.63;;
11473;SDS011;5793;52.238;13.438;2023-07-30T01:49:51;5.20;;;4.70;;
11473;SDS011;5793;52.238;13.438;2023-07-30T01:52:19;5.85;;;5.35;;
11473;SDS011;5793;52.238;13.438;2023-07-30T01:54:47;4.78;;;4.38;;
11473;SDS011;5793;52.238;13.438;2023-07-30T01:57:16;5.95;;;4.70;;
11473;SDS011;5793;52.238;13.438;2023-07-30T01:59:43;4.70;;;4.30;;
11473;SDS011;5793;52.238;13.438;2023-07-30T02:02:11;4.88;;;4.38;;
11473;SDS011;5793;52.238;13.438;2023-07-30T02:04:45;4.65;;;4.25;;
11473;SDS011;5793;52.238;13.438;2023-07-30T02:07:15;7.05;;;6.25;;
11473;SDS011;5793;52.238;13.438;2023-07-30T02:09:42;7.60;;;5.75;;
11473;SDS011;5793;52.238;13.438;2023-07-30T02:12:10;8.45;;;6.18;;
11473;SDS011;5793;52.238;13.438;2023-07-30T02:14:39;6.35;;;5.82;;
11473;SDS011;5793;52.238;13.438;2023-07-30T02:17:07;6.72;;;5.57;;
11473;SDS011;5793;52.238;13.438;2023-07-30T02:19:35;5.88;;;5.32;;
11473;SDS011;5793;52.238;13.438;2023-07-30T02:22:03;5.88;;;5.38;;
11473;SDS011;5793;52.238;13.438;2023-07-30T02:24:31;6.68;;;5.40;;
11473;SDS011;5793;52.238;13.438;2023-07-30T02:26:59;6.22;;;5.70;;
11473;SDS011;5793;52.238;13.438;2023-07-30T02:29:27;5.80;;;5.30;;
11473;SDS011;5793;52.238;13.438;2023-07-30T02:31:56;5.43;;;4.97;;
11473;SDS011;5793;52.238;13.438;2023-07-30T02:34:26;5.28;;;4.65;;
11473;SDS011;5793;52.238;13.438;2023-07-30T02:36:53;5.07;;;4.68;;
11473;SDS011;5793;52.238;13.438;2023-07-30T02:39:21;5.28;;;4.88;;
11473;SDS011;5793;52.238;13.438;2023-07-30T02:41:49;6.65;;;5.97;;
11473;SDS011;5793;52.238;13.438;2023-07-30T02:44:17;5.40;;;4.90;;
11473;SDS011;5793;52.238;13.438;2023-07-30T02:46:44;5.50;;;4.97;;
11473;SDS011;5793;52.238;13.438;2023-07-30T02:49:14;5.32;;;4.88;;
11473;SDS011;5793;52.238;13.438;2023-07-30T02:51:41;5.70;;;4.60;;
11473;SDS011;5793;52.238;13.438;2023-07-30T02:54:14;6.03;;;5.50;;
11473;SDS011;5793;52.238;13.438;2023-07-30T02:56:43;5.38;;;4.88;;
11473;SDS011;5793;52.238;13.438;2023-07-30T02:59:11;5.50;;;4.75;;
11473;SDS011;5793;52.238;13.438;2023-07-30T03:01:39;5.47;;;4.60;;
11473;SDS011;5793;52.238;13.438;2023-07-30T03:04:07;7.97;;;7.18;;
11473;SDS011;5793;52.238;13.438;2023-07-30T03:06:36;6.43;;;5.82;;
11473;SDS011;5793;52.238;13.438;2023-07-30T03:09:04;7.40;;;6.68;;
11473;SDS011;5793;52.238;13.438;2023-07-30T03:11:32;7.57;;;6.80;;
11473;SDS011;5793;52.238;13.438;2023-07-30T03:13:59;6.70;;;6.20;;
11473;SDS011;5793;52.238;13.438;2023-07-30T03:16:27;6.20;;;5.70;;
11473;SDS011;5793;52.238;13.438;2023-07-30T03:18:55;6.78;;;6.20;;
11473;SDS011;5793;52.238;13.438;2023-07-30T03:21:23;7.50;;;6.90;;
11473;SDS011;5793;52.238;13.438;2023-07-30T03:23:52;7.97;;;7.28;;
11473;SDS011;5793;52.238;13.438;2023-07-30T03:26:19;8.32;;;7.43;;
11473;SDS011;5793;52.238;13.438;2023-07-30T03:28:47;8.00;;;7.30;;
11473;SDS011;5793;52.238;13.438;2023-07-30T03:31:15;7.75;;;7.05;;
11473;SDS011;5793;52.238;13.438;2023-07-30T03:33:43;8.57;;;6.95;;
11473;SDS011;5793;52.238;13.438;2023-07-30T03:36:12;9.02;;;6.00;;
11473;SDS011;5793;52.238;13.438;2023-07-30T03:38:40;6.95;;;6.35;;
11473;SDS011;5793;52.238;13.438;2023-07-30T03:41:10;7.72;;;7.10;;
11473;SDS011;5793;52.238;13.438;2023-07-30T03:43:38;7.57;;;6.97;;
11473;SDS011;5793;52.238;13.438;2023-07-30T03:46:06;7.53;;;6.82;;
11473;SDS011;5793;52.238;13.438;2023-07-30T03:48:33;8.27;;;7.47;;
11473;SDS011;5793;52.238;13.438;2023-07-30T03:51:01;10.02;;;8.48;;
11473;SDS011;5793;52.238;13.438;2023-07-30T03:53:29;7.57;;;6.97;;
11473;SDS011;5793;52.238;13.438;2023-07-30T03:55:57;7.88;;;7.07;;
11473;SDS011;5793;52.238;13.438;2023-07-30T03:58:26;8.13;;;7.43;;
11473;SDS011;5793;52.238;13.438;2023-07-30T04:00:54;7.70;;;7.00;;
11473;SDS011;5793;52.238;13.438;2023-07-30T04:03:21;8.77;;;7.97;;
11473;SDS011;5793;52.238;13.438;2023-07-30T04:05:49;8.15;;;7.47;;
11473;SDS011;5793;52.238;13.438;2023-07-30T04:08:17;8.43;;;7.72;;
11473;SDS011;5793;52.238;13.438;2023-07-30T04:10:45;9.38;;;8.48;;
11473;SDS011;5793;52.238;13.438;2023-07-30T04:13:13;10.00;;;9.00;;
11473;SDS011;5793;52.238;13.438;2023-07-30T04:15:42;9.05;;;8.25;;
11473;SDS011;5793;52.238;13.438;2023-07-30T04:18:10;9.02;;;8.23;;
11473;SDS011;5793;52.238;13.438;2023-07-30T04:20:37;9.32;;;8.02;;
11473;SDS011;5793;52.238;13.438;2023-07-30T04:23:05;10.15;;;8.73;;
11473;SDS011;5793;52.238;13.438;2023-07-30T04:25:33;9.02;;;8.20;;
11473;SDS011;5793;52.238;13.438;2023-07-30T04:28:01;9.05;;;8.25;;
11473;SDS011;5793;52.238;13.438;2023-07-30T04:30:28;8.98;;;8.07;;
11473;SDS011;5793;52.238;13.438;2023-07-30T04:32:57;8.40;;;7.35;;
11473;SDS011;5793;52.238;13.438;2023-07-30T04:35:25;8.60;;;7.85;;
11473;SDS011;5793;52.238;13.438;2023-07-30T04:37:53;9.18;;;8.25;;
11473;SDS011;5793;52.238;13.438;2023-07-30T04:40:21;7.80;;;7.10;;
11473;SDS011;5793;52.238;13.438;2023-07-30T04:42:49;9.45;;;7.50;;
11473;SDS011;5793;52.238;13.438;2023-07-30T04:45:17;8.35;;;7.55;;
11473;SDS011;5793;52.238;13.438;2023-07-30T04:47:45;8.60;;;7.80;;
11473;SDS011;5793;52.238;13.438;2023-07-30T04:50:14;8.05;;;7.35;;
11473;SDS011;5793;52.238;13.438;2023-07-30T04:52:42;8.45;;;7.55;;
11473;SDS011;5793;52.238;13.438;2023-07-30T04:55:10;9.00;;;8.20;;
11473;SDS011;5793;52.238;13.438;2023-07-30T04:57:37;7.47;;;6.72;;
11473;SDS011;5793;52.238;13.438;2023-07-30T05:00:05;8.45;;;7.60;;
11473;SDS011;5793;52.238;13.438;2023-07-30T05:02:34;8.13;;;7.32;;
11473;SDS011;5793;52.238;13.438;2023-07-30T05:05:02;8.40;;;7.53;;
11473;SDS011;5793;52.238;13.438;2023-07-30T05:07:31;8.70;;;7.85;;
11473;SDS011;5793;52.238;13.438;2023-07-30T05:09:59;7.47;;;6.78;;
11473;SDS011;5793;52.238;13.438;2023-07-30T05:12:26;8.30;;;7.60;;
11473;SDS011;5793;52.238;13.438;2023-07-30T05:14:54;8.25;;;7.43;;
11473;SDS011;5793;52.238;13.438;2023-07-30T05:17:22;8.23;;;7.28;;
11473;SDS011;5793;52.238;13.438;2023-07-30T05:19:50;8.40;;;7.43;;
11473;SDS011;5793;52.238;13.438;2023-07-30T05:22:18;7.65;;;6.95;;
11473;SDS011;5793;52.238;13.438;2023-07-30T05:24:47;8.20;;;7.40;;
11473;SDS011;5793;52.238;13.438;2023-07-30T05:27:15;8.15;;;7.30;;
11473;SDS011;5793;52.238;13.438;2023-07-30T05:29:43;7.75;;;7.00;;
11473;SDS011;5793;52.238;13.438;2023-07-30T05:32:14;7.05;;;6.45;;
11473;SDS011;5793;52.238;13.438;2023-07-30T05:34:41;6.82;;;6.07;;
11473;SDS011;5793;52.238;13.438;2023-07-30T05:37:09;7.80;;;6.47;;
11473;SDS011;5793;52.238;13.438;2023-07-30T05:39:37;7.35;;;6.68;;
11473;SDS011;5793;52.238;13.438;2023-07-30T05:42:06;7.60;;;6.93;;
11473;SDS011;5793;52.238;13.438;2023-07-30T05:44:34;6.40;;;5.82;;
11473;SDS011;5793;52.238;13.438;2023-07-30T05:47:02;6.82;;;6.18;;
11473;SDS011;5793;52.238;13.438;2023-07-30T05:49:30;5.75;;;5.25;;
11473;SDS011;5793;52.238;13.438;2023-07-30T05:51:58;7.20;;;6.22;;
11473;SDS011;5793;52.238;13.438;2023-07-30T05:54:25;6.90;;;6.20;;
11473;SDS011;5793;52.238;13.438;2023-07-30T05:56:53;6.82;;;6.13;;
11473;SDS011;5793;52.238;13.438;2023-07-30T05:59:22;6.50;;;5.78;;
11473;SDS011;5793;52.238;13.438;2023-07-30T06:01:50;6.30;;;5.70;;
11473;SDS011;5793;52.238;13.438;2023-07-30T06:04:18;6.45;;;5.88;;
11473;SDS011;5793;52.238;13.438;2023-07-30T06:06:46;6.15;;;5.55;;
11473;SDS011;5793;52.238;13.438;2023-07-30T06:09:14;6.30;;;5.70;;
11473;SDS011;5793;52.238;13.438;2023-07-30T06:11:41;6.40;;;5.90;;
11473;SDS011;5793;52.238;13.438;2023-07-30T06:14:09;6.45;;;5.85;;
11473;SDS011;5793;52.238;13.438;2023-07-30T06:16:38;6.28;;;5.70;;
11473;SDS011;5793;52.238;13.438;2023-07-30T06:19:06;6.88;;;6.20;;
11473;SDS011;5793;52.238;13.438;2023-07-30T06:21:34;6.70;;;5.88;;
11473;SDS011;5793;52.238;13.438;2023-07-30T06:24:02;7.18;;;6.47;;
11473;SDS011;5793;52.238;13.438;2023-07-30T06:26:30;6.38;;;5.53;;
11473;SDS011;5793;52.238;13.438;2023-07-30T06:28:58;8.20;;;5.55;;
11473;SDS011;5793;52.238;13.438;2023-07-30T06:31:26;6.05;;;5.45;;
11473;SDS011;5793;52.238;13.438;2023-07-30T06:33:55;6.68;;;6.07;;
11473;SDS011;5793;52.238;13.438;2023-07-30T06:36:23;5.95;;;5.35;;
11473;SDS011;5793;52.238;13.438;2023-07-30T06:38:51;6.00;;;5.40;;
11473;SDS011;5793;52.238;13.438;2023-07-30T06:41:18;6.75;;;5.50;;
11473;SDS011;5793;52.238;13.438;2023-07-30T06:43:47;6.10;;;5.50;;
11473;SDS011;5793;52.238;13.438;2023-07-30T06:46:15;6.22;;;5.38;;
11473;SDS011;5793;52.238;13.438;2023-07-30T06:48:42;6.65;;;6.05;;
11473;SDS011;5793;52.238;13.438;2023-07-30T06:51:11;5.50;;;4.93;;
11473;SDS011;5793;52.238;13.438;2023-07-30T06:53:40;6.22;;;5.05;;
11473;SDS011;5793;52.238;13.438;2023-07-30T06:56:08;5.55;;;5.05;;
11473;SDS011;5793;52.238;13.438;2023-07-30T06:58:35;6.03;;;5.40;;
11473;SDS011;5793;52.238;13.438;2023-07-30T07:01:06;6.00;;;4.97;;
11473;SDS011;5793;52.238;13.438;2023-07-30T07:03:34;7.55;;;4.65;;
11473;SDS011;5793;52.238;13.438;2023-07-30T07:06:02;7.18;;;4.53;;
11473;SDS011;5793;52.238;13.438;2023-07-30T07:08:31;4.82;;;4.40;;
11473;SDS011;5793;52.238;13.438;2023-07-30T07:10:59;4.68;;;3.88;;
11473;SDS011;5793;52.238;13.438;2023-07-30T07:13:27;5.93;;;3.60;;
11473;SDS011;5793;52.238;13.438;2023-07-30T07:15:54;5.22;;;3.80;;
11473;SDS011;5793;52.238;13.438;2023-07-30T07:18:22;4.22;;;3.58;;
11473;SDS011;5793;52.238;13.438;2023-07-30T07:20:50;4.15;;;3.55;;
11473;SDS011;5793;52.238;13.438;2023-07-30T07:23:18;4.20;;;3.70;;
11473;SDS011;5793;52.238;13.438;2023-07-30T07:25:47;4.55;;;3.75;;
11473;SDS011;5793;52.238;13.438;2023-07-30T07:28:14;5.47;;;3.78;;
11473;SDS011;5793;52.238;13.438;2023-07-30T07:30:43;5.50;;;3.55;;
11473;SDS011;5793;52.238;13.438;2023-07-30T07:33:11;4.15;;;3.30;;
11473;SDS011;5793;52.238;13.438;2023-07-30T07:35:39;3.80;;;3.50;;
11473;SDS011;5793;52.238;13.438;2023-07-30T07:38:07;3.60;;;2.90;;
11473;SDS011;5793;52.238;13.438;2023-07-30T07:40:38;3.60;;;3.30;;
11473;SDS011;5793;52.238;13.438;2023-07-30T07:43:08;3.30;;;3.00;;
11473;SDS011;5793;52.238;13.438;2023-07-30T07:45:36;3.72;;;3.28;;
11473;SDS011;5793;52.238;13.438;2023-07-30T07:48:04;5.85;;;3.20;;
11473;SDS011;5793;52.238;13.438;2023-07-30T07:50:32;3.97;;;2.63;;
11473;SDS011;5793;52.238;13.438;2023-07-30T07:52:59;4.97;;;3.22;;
11473;SDS011;5793;52.238;13.438;2023-07-30T07:55:27;4.10;;;3.10;;
11473;SDS011;5793;52.238;13.438;2023-07-30T07:57:55;3.75;;;3.33;;
11473;SDS011;5793;52.238;13.438;2023-07-30T08:00:24;7.53;;;3.38;;
11473;SDS011;5793;52.238;13.438;2023-07-30T08:02:52;4.05;;;3.00;;
11473;SDS011;5793;52.238;13.438;2023-07-30T08:05:20;3.70;;;2.92;;
11473;SDS011;5793;52.238;13.438;2023-07-30T08:07:47;3.10;;;2.63;;
11473;SDS011;5793;52.238;13.438;2023-07-30T08:10:15;5.70;;;3.10;;
11473;SDS011;5793;52.238;13.438;2023-07-30T08:12:45;3.60;;;3.30;;
11473;SDS011;5793;52.238;13.438;2023-07-30T08:15:14;7.70;;;3.40;;
11473;SDS011;5793;52.238;13.438;2023-07-30T08:17:43;4.88;;;3.40;;
11473;SDS011;5793;52.238;13.438;2023-07-30T08:20:11;3.17;;;2.88;;
11473;SDS011;5793;52.238;13.438;2023-07-30T08:22:39;4.03;;;2.90;;
11473;SDS011;5793;52.238;13.438;2023-07-30T08:25:07;6.57;;;3.03;;
11473;SDS011;5793;52.238;13.438;2023-07-30T08:27:35;4.90;;;3.10;;
11473;SDS011;5793;52.238;13.438;2023-07-30T08:30:03;4.25;;;3.15;;
11473;SDS011;5793;52.238;13.438;2023-07-30T08:32:32;3.75;;;2.88;;
11473;SDS011;5793;52.238;13.438;2023-07-30T08:35:05;4.30;;;2.70;;
11473;SDS011;5793;52.238;13.438;2023-07-30T08:37:34;2.92;;;2.70;;
11473;SDS011;5793;52.238;13.438;2023-07-30T08:40:02;7.68;;;2.78;;
11473;SDS011;5793;52.238;13.438;2023-07-30T08:42:30;4.10;;;2.40;;
11473;SDS011;5793;52.238;13.438;2023-07-30T08:44:59;6.15;;;2.15;;
11473;SDS011;5793;52.238;13.438;2023-07-30T08:47:27;3.95;;;2.40;;
11473;SDS011;5793;52.238;13.438;2023-07-30T08:49:55;2.88;;;2.03;;
11473;SDS011;5793;52.238;13.438;2023-07-30T08:52:25;7.10;;;2.45;;
11473;SDS011;5793;52.238;13.438;2023-07-30T08:54:54;4.13;;;2.10;;
11473;SDS011;5793;52.238;13.438;2023-07-30T08:57:24;2.60;;;2.25;;
11473;SDS011;5793;52.238;13.438;2023-07-30T08:59:56;3.85;;;2.35;;
11473;SDS011;5793;52.238;13.438;2023-07-30T09:02:30;2.47;;;1.98;;
11473;SDS011;5793;52.238;13.438;2023-07-30T09:05:02;2.22;;;2.03;;
11473;SDS011;5793;52.238;13.438;2023-07-30T09:07:32;4.55;;;2.70;;
11473;SDS011;5793;52.238;13.438;2023-07-30T09:10:00;2.35;;;1.90;;
11473;SDS011;5793;52.238;13.438;2023-07-30T09:12:28;3.33;;;2.08;;
11473;SDS011;5793;52.238;13.438;2023-07-30T09:14:57;2.58;;;2.20;;
11473;SDS011;5793;52.238;13.438;2023-07-30T09:17:25;4.03;;;2.05;;
11473;SDS011;5793;52.238;13.438;2023-07-30T09:19:52;2.90;;;2.10;;
11473;SDS011;5793;52.238;13.438;2023-07-30T09:22:24;4.38;;;2.00;;
11473;SDS011;5793;52.238;13.438;2023-07-30T09:24:54;3.75;;;1.73;;
11473;SDS011;5793;52.238;13.438;2023-07-30T09:27:23;2.40;;;1.90;;
11473;SDS011;5793;52.238;13.438;2023-07-30T09:29:53;2.42;;;2.03;;
11473;SDS011;5793;52.238;13.438;2023-07-30T09:32:25;2.88;;;2.08;;
11473;SDS011;5793;52.238;13.438;2023-07-30T09:34:55;2.42;;;1.95;;
11473;SDS011;5793;52.238;13.438;2023-07-30T09:37:23;2.92;;;2.08;;
11473;SDS011;5793;52.238;13.438;2023-07-30T09:39:51;2.38;;;2.00;;
11473;SDS011;5793;52.238;13.438;2023-07-30T09:42:20;3.95;;;2.38;;
11473;SDS011;5793;52.238;13.438;2023-07-30T09:44:53;2.42;;;2.20;;
11473;SDS011;5793;52.238;13.438;2023-07-30T09:47:26;2.20;;;2.00;;
11473;SDS011;5793;52.238;13.438;2023-07-30T09:49:55;3.67;;;2.38;;
11473;SDS011;5793;52.238;13.438;2023-07-30T09:52:23;3.85;;;1.88;;
11473;SDS011;5793;52.238;13.438;2023-07-30T09:54:51;7.70;;;2.53;;
11473;SDS011;5793;52.238;13.438;2023-07-30T09:57:21;3.00;;;2.28;;
11473;SDS011;5793;52.238;13.438;2023-07-30T09:59:48;2.67;;;2.10;;
11473;SDS011;5793;52.238;13.438;2023-07-30T10:02:19;3.83;;;2.42;;
11473;SDS011;5793;52.238;13.438;2023-07-30T10:04:49;4.70;;;1.90;;
11473;SDS011;5793;52.238;13.438;2023-07-30T10:07:20;2.13;;;1.90;;
11473;SDS011;5793;52.238;13.438;2023-07-30T10:09:51;5.18;;;2.28;;
11473;SDS011;5793;52.238;13.438;2023-07-30T10:12:22;2.72;;;2.10;;
11473;SDS011;5793;52.238;13.438;2023-07-30T10:14:53;2.42;;;1.77;;
11473;SDS011;5793;52.238;13.438;2023-07-30T10:17:21;3.28;;;2.20;;
11473;SDS011;5793;52.238;13.438;2023-07-30T10:19:49;3.40;;;2.20;;
11473;SDS011;5793;52.238;13.438;2023-07-30T10:22:20;5.35;;;2.15;;
11473;SDS011;5793;52.238;13.438;2023-07-30T10:24:58;3.78;;;2.30;;
11473;SDS011;5793;52.238;13.438;2023-07-30T10:27:37;5.07;;;2.28;;
11473;SDS011;5793;52.238;13.438;2023-07-30T10:30:10;3.00;;;1.95;;
11473;SDS011;5793;52.238;13.438;2023-07-30T10:32:39;4.20;;;1.92;;
11473;SDS011;5793;52.238;13.438;2023-07-30T10:35:09;4.18;;;2.08;;
11473;SDS011;5793;52.238;13.438;2023-07-30T10:38:12;4.40;;;1.90;;
11473;SDS011;5793;52.238;13.438;2023-07-30T10:40:59;3.90;;;1.80;;
11473;SDS011;5793;52.238;13.438;2023-07-30T10:43:29;2.53;;;2.10;;
11473;SDS011;5793;52.238;13.438;2023-07-30T10:45:58;2.83;;;1.77;;
11473;SDS011;5793;52.238;13.438;2023-07-30T10:48:29;2.90;;;2.10;;
11473;SDS011;5793;52.238;13.438;2023-07-30T10:51:02;4.60;;;2.05;;
11473;SDS011;5793;52.238;13.438;2023-07-30T10:53:32;4.57;;;2.20;;
11473;SDS011;5793;52.238;13.438;2023-07-30T10:56:02;3.92;;;2.28;;
11473;SDS011;5793;52.238;13.438;2023-07-30T10:58:33;5.15;;;1.80;;
11473;SDS011;5793;52.238;13.438;2023-07-30T11:01:03;3.47;;;2.17;;
11473;SDS011;5793;52.238;13.438;2023-07-30T11:03:31;3.38;;;2.00;;
11473;SDS011;5793;52.238;13.438;2023-07-30T11:06:00;3.88;;;2.13;;
11473;SDS011;5793;52.238;13.438;2023-07-30T11:08:32;3.97;;;1.75;;
11473;SDS011;5793;52.238;13.438;2023-07-30T11:11:00;3.83;;;2.10;;
11473;SDS011;5793;52.238;13.438;2023-07-30T11:13:29;5.00;;;2.40;;
11473;SDS011;5793;52.238;13.438;2023-07-30T11:15:58;4.03;;;2.15;;
11473;SDS011;5793;52.238;13.438;2023-07-30T11:18:26;3.55;;;2.03;;
11473;SDS011;5793;52.238;13.438;2023-07-30T11:21:02;4.30;;;2.17;;
11473;SDS011;5793;52.238;13.438;2023-07-30T11:23:30;3.80;;;2.20;;
11473;SDS011;5793;52.238;13.438;2023-07-30T11:25:59;4.70;;;2.42;;
11473;SDS011;5793;52.238;13.438;2023-07-30T11:28:28;5.40;;;2.00;;
11473;SDS011;5793;52.238;13.438;2023-07-30T11:31:02;4.85;;;2.40;;
11473;SDS011;5793;52.238;13.438;2023-07-30T11:33:31;3.30;;;2.40;;
11473;SDS011;5793;52.238;13.438;2023-07-30T11:36:02;3.25;;;2.00;;
11473;SDS011;5793;52.238;13.438;2023-07-30T11:38:31;2.80;;;2.25;;
11473;SDS011;5793;52.238;13.438;2023-07-30T11:40:59;2.90;;;1.80;;
11473;SDS011;5793;52.238;13.438;2023-07-30T11:43:28;4.10;;;2.50;;
11473;SDS011;5793;52.238;13.438;2023-07-30T11:46:07;3.50;;;2.25;;
11473;SDS011;5793;52.238;13.438;2023-07-30T11:48:36;4.35;;;2.13;;
11473;SDS011;5793;52.238;13.438;2023-07-30T11:51:04;5.35;;;2.55;;
11473;SDS011;5793;52.238;13.438;2023-07-30T11:53:45;3.63;;;2.88;;
11473;SDS011;5793;52.238;13.438;2023-07-30T11:56:18;3.33;;;2.63;;
11473;SDS011;5793;52.238;13.438;2023-07-30T11:58:48;3.80;;;2.40;;
11473;SDS011;5793;52.238;13.438;2023-07-30T12:01:18;3.47;;;2.10;;
11473;SDS011;5793;52.238;13.438;2023-07-30T12:03:46;3.83;;;2.20;;
11473;SDS011;5793;52.238;13.438;2023-07-30T12:06:14;4.25;;;2.30;;
11473;SDS011;5793;52.238;13.438;2023-07-30T12:08:42;4.10;;;2.50;;
11473;SDS011;5793;52.238;13.438;2023-07-30T12:11:10;4.30;;;2.20;;
11473;SDS011;5793;52.238;13.438;2023-07-30T12:13:44;3.38;;;2.42;;
11473;SDS011;5793;52.238;13.438;2023-07-30T12:16:13;3.80;;;2.20;;
11473;SDS011;5793;52.238;13.438;2023-07-30T12:18:46;3.97;;;2.10;;
11473;SDS011;5793;52.238;13.438;2023-07-30T12:21:14;2.42;;;2.00;;
11473;SDS011;5793;52.238;13.438;2023-07-30T12:23:41;4.22;;;2.30;;
11473;SDS011;5793;52.238;13.438;2023-07-30T12:26:09;3.13;;;2.30;;
11473;SDS011;5793;52.238;13.438;2023-07-30T12:28:37;3.97;;;2.20;;
11473;SDS011;5793;52.238;13.438;2023-07-30T12:31:05;3.28;;;2.20;;
11473;SDS011;5793;52.238;13.438;2023-07-30T12:33:33;3.55;;;2.28;;
11473;SDS011;5793;52.238;13.438;2023-07-30T12:36:02;3.92;;;2.42;;
11473;SDS011;5793;52.238;13.438;2023-07-30T12:38:30;4.20;;;2.10;;
11473;SDS011;5793;52.238;13.438;2023-07-30T12:40:58;3.28;;;2.47;;
11473;SDS011;5793;52.238;13.438;2023-07-30T12:43:25;3.45;;;2.05;;
11473;SDS011;5793;52.238;13.438;2023-07-30T12:45:53;4.55;;;2.17;;
11473;SDS011;5793;52.238;13.438;2023-07-30T12:48:21;3.80;;;2.08;;
11473;SDS011;5793;52.238;13.438;2023-07-30T12:50:49;4.43;;;2.42;;
11473;SDS011;5793;52.238;13.438;2023-07-30T12:53:18;6.90;;;2.80;;
11473;SDS011;5793;52.238;13.438;2023-07-30T12:55:46;4.13;;;2.38;;
11473;SDS011;5793;52.238;13.438;2023-07-30T12:58:14;3.78;;;2.45;;
11473;SDS011;5793;52.238;13.438;2023-07-30T13:00:41;3.55;;;2.25;;
11473;SDS011;5793;52.238;13.438;2023-07-30T13:03:09;5.43;;;2.00;;
11473;SDS011;5793;52.238;13.438;2023-07-30T13:05:37;2.38;;;2.15;;
11473;SDS011;5793;52.238;13.438;2023-07-30T13:08:05;4.68;;;2.47;;
11473;SDS011;5793;52.238;13.438;2023-07-30T13:10:34;4.82;;;2.40;;
11473;SDS011;5793;52.238;13.438;2023-07-30T13:13:02;3.50;;;2.10;;
11473;SDS011;5793;52.238;13.438;2023-07-30T13:15:30;5.35;;;2.38;;
11473;SDS011;5793;52.238;13.438;2023-07-30T13:17:58;6.22;;;2.65;;
11473;SDS011;5793;52.238;13.438;2023-07-30T13:20:25;3.67;;;2.30;;
11473;SDS011;5793;52.238;13.438;2023-07-30T13:22:53;5.57;;;2.08;;
11473;SDS011;5793;52.238;13.438;2023-07-30T13:25:21;5.85;;;2.15;;
11473;SDS011;5793;52.238;13.438;2023-07-30T13:27:51;2.60;;;2.20;;
11473;SDS011;5793;52.238;13.438;2023-07-30T13:30:19;2.92;;;1.90;;
11473;SDS011;5793;52.238;13.438;2023-07-30T13:32:47;3.67;;;2.03;;
11473;SDS011;5793;52.238;13.438;2023-07-30T13:35:15;3.78;;;2.47;;
11473;SDS011;5793;52.238;13.438;2023-07-30T13:37:43;2.50;;;2.00;;
11473;SDS011;5793;52.238;13.438;2023-07-30T13:40:11;2.75;;;2.10;;
11473;SDS011;5793;52.238;13.438;2023-07-30T13:42:39;3.22;;;2.00;;
11473;SDS011;5793;52.238;13.438;2023-07-30T13:45:08;2.38;;;2.03;;
11473;SDS011;5793;52.238;13.438;2023-07-30T13:47:36;3.17;;;2.17;;
11473;SDS011;5793;52.238;13.438;2023-07-30T13:50:05;2.35;;;1.80;;
11473;SDS011;5793;52.238;13.438;2023-07-30T13:52:34;3.65;;;2.00;;
11473;SDS011;5793;52.238;13.438;2023-07-30T13:55:02;2.08;;;1.88;;
11473;SDS011;5793;52.238;13.438;2023-07-30T13:57:30;3.10;;;2.20;;
11473;SDS011;5793;52.238;13.438;2023-07-30T14:00:01;2.47;;;1.83;;
11473;SDS011;5793;52.238;13.438;2023-07-30T14:02:31;3.33;;;1.90;;
11473;SDS011;5793;52.238;13.438;2023-07-30T14:04:59;3.95;;;2.03;;
11473;SDS011;5793;52.238;13.438;2023-07-30T14:07:27;4.38;;;1.98;;
11473;SDS011;5793;52.238;13.438;2023-07-30T14:09:55;2.13;;;1.88;;
11473;SDS011;5793;52.238;13.438;2023-07-30T14:12:22;2.85;;;2.10;;
11473;SDS011;5793;52.238;13.438;2023-07-30T14:14:50;3.10;;;1.88;;
11473;SDS011;5793;52.238;13.438;2023-07-30T14:17:21;2.85;;;2.10;;
11473;SDS011;5793;52.238;13.438;2023-07-30T14:19:53;2.78;;;2.05;;
11473;SDS011;5793;52.238;13.438;2023-07-30T14:22:22;2.10;;;1.90;;
11473;SDS011;5793;52.238;13.438;2023-07-30T14:24:50;2.08;;;1.73;;
11473;SDS011;5793;52.238;13.438;2023-07-30T14:27:18;2.33;;;1.75;;
11473;SDS011;5793;52.238;13.438;2023-07-30T14:29:49;4.07;;;1.88;;
11473;SDS011;5793;52.238;13.438;2023-07-30T14:32:21;2.17;;;1.70;;
11473;SDS011;5793;52.238;13.438;2023-07-30T14:34:50;1.83;;;1.65;;
11473;SDS011;5793;52.238;13.438;2023-07-30T14:37:39;2.78;;;1.77;;
11473;SDS011;5793;52.238;13.438;2023-07-30T14:40:19;4.70;;;2.00;;
11473;SDS011;5793;52.238;13.438;2023-07-30T14:42:48;2.13;;;1.48;;
11473;SDS011;5793;52.238;13.438;2023-07-30T14:45:18;2.25;;;1.70;;
11473;SDS011;5793;52.238;13.438;2023-07-30T14:47:50;2.30;;;1.80;;
11473;SDS011;5793;52.238;13.438;2023-07-30T14:50:18;1.95;;;1.40;;
11473;SDS011;5793;52.238;13.438;2023-07-30T14:52:53;4.18;;;1.65;;
11473;SDS011;5793;52.238;13.438;2023-07-30T14:55:26;2.95;;;1.60;;
11473;SDS011;5793;52.238;13.438;2023-07-30T14:57:54;2.35;;;1.63;;